Time;durP1;ratioP1;P1;durP2;ratioP2;P2;SDS_P1;SDS_P2;PMS_P1;PMS_P2;Temp;Humidity;BMP_temperature;BMP_pressure;BME280_temperature;BME280_humidity;BME280_pressure;Samples;Min_cycle;Max_cycle;Signal;HPM_P1;HPM_P2
2023/10/06 00:02:33;;;;;;;2.70;0.90;;;;;;;20.03;50.60;102487.28;16127517;19;130052;-60
2023/10/06 00:07:57;;;;;;;3.90;0.90;;;;;;;20.01;50.66;102489.41;16124855;19;129738;-60
2023/10/06 00:13:23;;;;;;;2.63;0.82;;;;;;;19.99;50.67;102496.03;16125252;19;129710;-60
2023/10/06 00:18:47;;;;;;;1.60;0.65;;;;;;;19.99;51.10;102497.94;16125986;19;129592;-60
2023/10/06 00:24:10;;;;;;;2.05;0.63;;;;;;;19.98;50.70;102499.03;16126914;19;129702;-61
2023/10/06 00:29:35;;;;;;;2.28;0.82;;;;;;;19.96;50.77;102499.22;16121316;19;130320;-60
2023/10/06 00:35:22;;;;;;;2.00;0.80;;;;;;;19.96;50.68;102492.81;16121250;19;129671;-60
2023/10/06 00:40:52;;;;;;;1.75;0.93;;;;;;;19.94;51.19;102501.34;16125033;19;131613;-60
2023/10/06 00:46:16;;;;;;;2.40;0.60;;;;;;;19.93;50.84;102488.56;16124360;19;130357;-60
2023/10/06 00:51:41;;;;;;;2.55;1.02;;;;;;;19.93;51.07;102484.91;16123044;19;129613;-61
2023/10/06 00:57:08;;;;;;;2.53;0.50;;;;;;;19.91;51.02;102475.94;16121272;19;131222;-61
2023/10/06 01:02:33;;;;;;;1.02;0.65;;;;;;;19.90;51.21;102465.91;16123962;19;129787;-61
2023/10/06 01:07:56;;;;;;;1.67;0.88;;;;;;;19.90;50.87;102466.78;16118830;19;134571;-61
2023/10/06 01:13:19;;;;;;;2.63;0.88;;;;;;;19.88;51.17;102468.91;16122231;19;129577;-61
2023/10/06 01:18:41;;;;;;;1.90;0.60;;;;;;;19.87;50.94;102456.09;16121490;19;131670;-60
2023/10/06 01:24:11;;;;;;;2.72;0.80;;;;;;;19.87;51.34;102450.53;16118929;19;130006;-61
2023/10/06 01:29:38;;;;;;;1.02;0.50;;;;;;;19.86;51.12;102451.59;16120648;19;131606;-60
2023/10/06 01:35:01;;;;;;;3.63;0.70;;;;;;;19.84;51.29;102446.28;16122598;19;130253;-61
2023/10/06 01:45:52;;;;;;;1.65;0.63;;;;;;;19.83;50.98;102435.38;16115402;19;131417;-61
2023/10/06 01:51:15;;;;;;;0.77;0.40;;;;;;;19.82;51.38;102436.44;16117880;19;130012;-61
2023/10/06 01:56:37;;;;;;;2.28;0.50;;;;;;;19.81;51.39;102437.53;16113985;19;131079;-61
2023/10/06 02:02:02;;;;;;;1.42;0.60;;;;;;;19.81;51.07;102437.53;16113989;19;129670;-61
2023/10/06 02:07:25;;;;;;;1.15;0.50;;;;;;;19.80;51.32;102439.44;16116125;19;130785;-61
2023/10/06 02:12:47;;;;;;;0.70;0.40;;;;;;;19.80;51.04;102427.50;16117606;19;130400;-61
2023/10/06 02:18:12;;;;;;;1.55;0.50;;;;;;;19.79;51.29;102420.22;16116548;19;130592;-61
2023/10/06 02:23:37;;;;;;;0.82;0.40;;;;;;;19.77;51.06;102439.88;16110323;19;132883;-61
2023/10/06 02:28:59;;;;;;;1.27;0.47;;;;;;;19.77;51.04;102411.25;16115087;19;129818;-61
2023/10/06 02:34:27;;;;;;;0.80;0.50;;;;;;;19.76;51.31;102409.56;16111919;19;130486;-61
2023/10/06 02:39:50;;;;;;;1.05;0.50;;;;;;;19.74;51.13;102407.00;16116990;19;129947;-61
2023/10/06 02:45:20;;;;;;;0.40;0.30;;;;;;;19.75;51.26;102407.84;16117304;19;130454;-61
2023/10/06 02:50:45;;;;;;;1.10;0.50;;;;;;;19.75;51.55;102424.50;16115506;19;130603;-61
2023/10/06 02:56:09;;;;;;;2.45;0.60;;;;;;;19.74;51.22;102423.66;16114551;19;129237;-61
2023/10/06 03:01:31;;;;;;;1.95;0.50;;;;;;;19.72;51.59;102413.81;16148610;19;130447;-61
2023/10/06 03:06:58;;;;;;;0.82;0.47;;;;;;;19.74;51.08;102420.00;16146418;19;130627;-61
2023/10/06 03:17:45;;;;;;;1.40;0.40;;;;;;;19.69;51.69;102427.06;16142246;19;131331;-61
2023/10/06 03:23:24;;;;;;;0.95;0.50;;;;;;;19.71;51.23;102423.22;16141002;19;130571;-62
2023/10/06 03:28:49;;;;;;;0.80;0.50;;;;;;;19.69;51.31;102431.78;16143214;19;131083;-61
2023/10/06 03:34:19;;;;;;;1.40;0.43;;;;;;;19.67;51.31;102429.22;16142791;19;130572;-61
2023/10/06 03:39:48;;;;;;;1.08;0.55;;;;;;;19.67;51.49;102418.13;16141099;19;129787;-61
2023/10/06 03:45:18;;;;;;;1.48;0.40;;;;;;;19.66;51.70;102402.53;16139510;19;130049;-61
2023/10/06 03:50:43;;;;;;;0.75;0.40;;;;;;;19.66;51.49;102398.88;16141898;19;131731;-61
2023/10/06 03:56:06;;;;;;;1.85;0.82;;;;;;;19.64;51.75;102390.78;16143216;19;130680;-61
2023/10/06 04:01:32;;;;;;;0.90;0.57;;;;;;;19.65;51.31;102384.16;16143491;19;131060;-61
2023/10/06 04:06:56;;;;;;;0.80;0.47;;;;;;;19.63;51.52;102389.06;16142363;19;130046;-61
2023/10/06 04:12:18;;;;;;;0.83;0.40;;;;;;;19.64;51.43;102396.34;16121534;19;132094;-61
2023/10/06 04:17:40;;;;;;;0.75;0.50;;;;;;;19.62;51.60;102384.59;16122380;19;130950;-61
2023/10/06 04:23:03;;;;;;;0.45;0.40;;;;;;;19.62;51.43;102381.81;16121182;19;131891;-61
2023/10/06 04:28:27;;;;;;;1.45;0.63;;;;;;;19.62;51.77;102387.38;16120687;19;129837;-60
2023/10/06 04:33:50;;;;;;;0.82;0.50;;;;;;;19.61;51.63;102394.00;16123491;19;129570;-62
2023/10/06 04:39:16;;;;;;;0.85;0.50;;;;;;;19.60;51.75;102378.41;16120573;19;130316;-63
2023/10/06 04:44:38;;;;;;;2.05;0.50;;;;;;;19.59;51.50;102382.25;16121526;19;129594;-62
2023/10/06 04:50:00;;;;;;;1.35;0.75;;;;;;;19.60;51.68;102394.22;16125927;19;130326;-62
2023/10/06 04:55:22;;;;;;;1.02;0.40;;;;;;;19.58;51.66;102394.41;16120316;19;129287;-62
2023/10/06 05:00:49;;;;;;;1.95;0.70;;;;;;;19.58;51.63;102388.03;16120740;19;130124;-62
2023/10/06 05:06:16;;;;;;;0.65;0.40;;;;;;;19.58;51.59;102374.97;16125714;19;129973;-61
2023/10/06 05:11:39;;;;;;;0.98;0.50;;;;;;;19.57;51.84;102378.84;16121544;19;130021;-61
2023/10/06 05:17:01;;;;;;;0.75;0.50;;;;;;;19.56;51.84;102374.38;16120519;19;130392;-60
2023/10/06 05:22:23;;;;;;;0.82;0.60;;;;;;;19.55;52.07;102371.81;16120685;19;130415;-58
2023/10/06 05:27:47;;;;;;;3.92;0.40;;;;;;;19.55;51.65;102369.91;16121749;19;130700;-62
2023/10/06 05:33:09;;;;;;;1.75;0.70;;;;;;;19.56;51.93;102371.59;16115571;19;129942;-65
2023/10/06 05:38:33;;;;;;;4.20;0.75;;;;;;;19.57;51.86;102372.44;16120877;19;130281;-61
2023/10/06 05:43:55;;;;;;;1.20;0.50;;;;;;;19.58;52.05;102363.88;16119910;19;129353;-60
2023/10/06 05:49:21;;;;;;;1.17;0.50;;;;;;;19.57;51.84;102370.50;16121186;19;130397;-61
2023/10/06 05:54:43;;;;;;;3.15;0.45;;;;;;;19.56;52.01;102360.50;16115613;19;130794;-62
2023/10/06 06:00:08;;;;;;;1.75;0.60;;;;;;;19.56;52.08;102371.59;16118901;19;130559;-62
2023/10/06 06:05:33;;;;;;;3.72;0.50;;;;;;;19.56;51.70;102370.72;16117734;19;131092;-62
2023/10/06 06:10:59;;;;;;;0.93;0.60;;;;;;;19.55;51.71;102369.03;16116662;19;131270;-62
2023/10/06 06:16:21;;;;;;;2.72;0.75;;;;;;;19.55;52.00;102369.91;16117612;19;130299;-62
2023/10/06 06:21:46;;;;;;;1.15;0.43;;;;;;;19.55;51.86;102374.56;16112705;19;130881;-62
2023/10/06 06:27:09;;;;;;;0.80;0.47;;;;;;;19.56;51.77;102382.72;16116527;19;129558;-62
2023/10/06 06:32:31;;;;;;;1.23;0.65;;;;;;;19.57;51.47;102383.53;16113912;19;131542;-61
2023/10/06 06:38:01;;;;;;;1.45;0.60;;;;;;;19.58;51.41;102386.09;16114584;19;131109;-62
2023/10/06 06:43:23;;;;;;;1.23;0.55;;;;;;;19.60;51.39;102389.50;16112513;19;130602;-62
2023/10/06 06:48:46;;;;;;;1.95;0.60;;;;;;;19.63;51.45;102396.56;16115892;19;129427;-62
2023/10/06 06:54:10;;;;;;;2.35;0.60;;;;;;;19.63;51.53;102394.63;16112169;19;130940;-62
2023/10/06 06:59:32;;;;;;;1.63;0.68;;;;;;;19.67;51.33;102395.91;16115767;19;131085;-62
2023/10/06 07:04:55;;;;;;;1.30;0.70;;;;;;;19.71;51.26;102392.69;16114532;19;131529;-62
2023/10/06 07:10:22;;;;;;;1.58;0.57;;;;;;;19.74;51.14;102397.81;16110839;19;130678;-62
2023/10/06 07:15:44;;;;;;;3.55;0.98;;;;;;;19.74;51.36;102400.59;16109355;19;132474;-62
2023/10/06 07:21:10;;;;;;;2.85;1.20;;;;;;;19.75;51.10;102403.16;16113019;19;129393;-62
2023/10/06 07:26:33;;;;;;;7.43;1.55;;;;;;;19.75;50.74;102407.84;16106552;19;128990;-62
2023/10/06 07:31:55;;;;;;;3.30;1.10;;;;;;;19.76;50.93;102409.56;16111636;19;131116;-62
2023/10/06 07:37:17;;;;;;;4.60;1.48;;;;;;;19.76;50.34;102410.38;16109898;19;130035;-62
2023/10/06 07:42:44;;;;;;;3.83;1.10;;;;;;;19.80;50.13;102410.84;16109188;19;129839;-62
2023/10/06 07:48:06;;;;;;;4.00;1.70;;;;;;;19.82;50.21;102417.88;16129129;19;129917;-62
2023/10/06 07:53:28;;;;;;;3.17;1.40;;;;;;;19.86;49.89;102412.72;16123380;19;130074;-62
2023/10/06 07:58:50;;;;;;;4.05;1.50;;;;;;;20.29;49.74;102423.28;16126446;19;129937;-62
2023/10/06 08:04:13;;;;;;;3.33;0.93;;;;;;;22.02;46.24;102410.09;16126049;19;130695;-62
2023/10/06 08:09:38;;;;;;;2.38;1.15;;;;;;;23.82;42.71;102421.44;16121952;19;130757;-62
2023/10/06 08:15:01;;;;;;;5.47;1.73;;;;;;;25.72;39.26;102413.94;16123863;19;129569;-63
2023/10/06 08:20:24;;;;;;;3.90;1.80;;;;;;;23.57;41.95;102421.69;16121083;19;129581;-62
2023/10/06 08:25:49;;;;;;;3.47;1.48;;;;;;;22.54;43.54;102423.56;16125533;19;130640;-60
2023/10/06 08:31:17;;;;;;;10.40;2.25;;;;;;;21.86;44.79;102432.97;16121919;19;129966;-59
2023/10/06 08:36:41;;;;;;;7.75;1.98;;;;;;;21.40;45.95;102429.56;16124687;19;130228;-61
2023/10/06 08:42:05;;;;;;;4.63;1.70;;;;;;;21.07;46.23;102437.13;16124602;19;130491;-63
2023/10/06 08:47:28;;;;;;;6.28;1.48;;;;;;;20.83;47.10;102438.81;16120852;19;130717;-61
2023/10/06 08:53:09;;;;;;;6.25;1.92;;;;;;;20.66;47.35;102435.69;16123011;19;129172;-59
2023/10/06 08:58:32;;;;;;;5.50;1.95;;;;;;;20.52;47.86;102434.91;16121725;19;129534;-60
2023/10/06 09:04:00;;;;;;;5.13;1.73;;;;;;;20.42;47.73;102443.75;16124886;19;130958;-61
2023/10/06 09:09:29;;;;;;;5.50;1.90;;;;;;;20.35;47.85;102429.00;16119890;19;130158;-62
2023/10/06 09:14:54;;;;;;;5.88;1.73;;;;;;;20.27;48.41;102439.31;16122782;19;129517;-59
2023/10/06 09:20:31;;;;;;;6.18;2.00;;;;;;;20.25;48.48;102444.25;16122830;19;129663;-64
2023/10/06 09:25:53;;;;;;;5.10;2.00;;;;;;;20.20;48.38;102434.84;16120574;19;129555;-59
2023/10/06 09:31:18;;;;;;;5.57;2.15;;;;;;;20.18;48.25;102440.66;16115719;19;130627;-58
2023/10/06 09:36:43;;;;;;;7.45;2.42;;;;;;;20.15;48.86;102424.41;16116540;19;129376;-59
2023/10/06 09:42:09;;;;;;;6.50;2.10;;;;;;;20.14;48.35;102419.91;16119588;19;131221;-60
2023/10/06 09:47:38;;;;;;;5.00;1.88;;;;;;;20.14;48.84;102422.69;16114791;19;129714;-61
2023/10/06 09:53:05;;;;;;;6.20;2.17;;;;;;;20.13;48.58;102424.59;16116720;19;129697;-59
2023/10/06 09:58:28;;;;;;;4.80;1.83;;;;;;;20.15;48.43;102407.75;16117662;19;130635;-59
2023/10/06 10:03:56;;;;;;;7.60;2.13;;;;;;;20.15;48.84;102413.28;16120970;19;129794;-59
2023/10/06 10:09:20;;;;;;;6.78;2.30;;;;;;;20.14;48.48;102417.13;16113366;19;129291;-58
2023/10/06 10:14:43;;;;;;;4.93;1.73;;;;;;;20.13;48.80;102416.28;16113650;19;129572;-61
2023/10/06 10:20:09;;;;;;;4.68;2.17;;;;;;;20.15;48.55;102402.19;16113630;19;129949;-60
2023/10/06 10:25:36;;;;;;;3.53;1.90;;;;;;;20.16;48.73;102400.25;16115299;19;130487;-61
2023/10/06 10:30:59;;;;;;;4.32;2.00;;;;;;;20.14;48.90;102395.75;16114795;19;129609;-59
2023/10/06 10:36:22;;;;;;;5.90;2.13;;;;;;;20.15;48.59;102396.63;16115799;19;129718;-67
2023/10/06 10:41:45;;;;;;;4.63;1.73;;;;;;;20.15;48.77;102388.28;16114869;19;129496;-61
2023/10/06 10:47:08;;;;;;;8.27;2.40;;;;;;;20.13;48.67;102382.94;16116074;19;129500;-61
2023/10/06 10:52:30;;;;;;;4.95;1.75;;;;;;;20.14;48.91;102369.91;16113478;19;130472;-61
2023/10/06 10:57:52;;;;;;;3.30;1.67;;;;;;;20.13;48.84;102379.31;16117162;19;129190;-62
2023/10/06 11:03:16;;;;;;;4.88;1.60;;;;;;;20.14;48.91;102387.41;16116740;19;130535;-59
2023/10/06 11:08:39;;;;;;;6.82;2.00;;;;;;;20.14;48.92;102378.25;16113124;19;129589;-62
2023/10/06 11:14:01;;;;;;;4.20;1.70;;;;;;;20.14;48.78;102378.25;16111089;19;129442;-62
2023/10/06 11:19:26;;;;;;;6.57;1.70;;;;;;;20.14;48.51;102375.47;16121480;19;129810;-59
2023/10/06 11:24:57;;;;;;;6.15;1.98;;;;;;;20.15;48.46;102371.63;16127467;19;131062;-64
2023/10/06 11:30:19;;;;;;;4.57;1.90;;;;;;;20.14;48.67;102367.13;16130346;19;131050;-61
2023/10/06 11:35:41;;;;;;;6.07;1.77;;;;;;;20.14;48.49;102369.91;16126332;19;129542;-61
2023/10/06 11:41:04;;;;;;;4.68;1.95;;;;;;;20.13;48.39;102370.97;16128491;19;129696;-61
2023/10/06 11:46:27;;;;;;;3.03;1.50;;;;;;;20.12;48.82;102364.56;16125258;19;130158;-59
2023/10/06 11:51:51;;;;;;;8.57;1.70;;;;;;;20.15;48.71;102354.94;16129266;19;130624;-59
2023/10/06 11:57:16;;;;;;;5.95;1.55;;;;;;;20.16;49.04;102342.75;16129007;19;129681;-61
2023/10/06 12:02:50;;;;;;;;;;;;;;;20.15;49.08;102341.06;16126659;19;129778;-61
2023/10/06 12:08:14;;;;;;;13.10;2.53;;;;;;;20.18;49.10;102340.63;16126922;19;129183;-59
2023/10/06 12:13:37;;;;;;;4.15;1.95;;;;;;;20.19;48.82;102328.41;16126388;19;130531;-60
2023/10/06 12:18:59;;;;;;;7.10;1.98;;;;;;;20.20;48.95;102321.78;16125484;19;131000;-59
2023/10/06 12:24:22;;;;;;;6.13;2.05;;;;;;;20.21;48.96;102319.84;16124224;19;130369;-59
2023/10/06 12:29:44;;;;;;;4.15;1.73;;;;;;;20.23;48.68;102312.16;16119969;19;132565;-60
2023/10/06 12:35:06;;;;;;;6.93;2.47;;;;;;;20.24;48.65;102309.16;16124465;19;129576;-60
2023/10/06 12:40:29;;;;;;;5.10;2.08;;;;;;;20.26;48.83;102306.13;16121389;19;130189;-61
2023/10/06 12:45:51;;;;;;;3.33;1.65;;;;;;;20.28;48.63;102301.19;16124173;19;129465;-63
2023/10/06 12:51:14;;;;;;;8.23;2.33;;;;;;;20.29;48.49;102309.34;16126547;19;130591;-60
2023/10/06 12:56:36;;;;;;;4.00;2.10;;;;;;;20.31;48.81;102297.16;16120475;19;131046;-59
2023/10/06 13:01:58;;;;;;;7.00;1.98;;;;;;;20.30;48.79;102287.94;16122272;19;130292;-60
2023/10/06 13:07:20;;;;;;;6.72;2.20;;;;;;;20.32;48.63;102284.91;16121714;19;129346;-59
2023/10/06 13:12:43;;;;;;;8.98;2.25;;;;;;;20.32;48.36;102285.78;16119835;19;130741;-59
2023/10/06 13:18:08;;;;;;;4.55;1.90;;;;;;;20.33;48.44;102275.50;16120669;19;129064;-61
2023/10/06 13:23:32;;;;;;;8.00;1.80;;;;;;;20.33;48.49;102281.06;16118639;19;130455;-60
2023/10/06 13:28:54;;;;;;;5.82;1.90;;;;;;;20.33;47.98;102275.50;16117760;19;130845;-59
2023/10/06 13:34:17;;;;;;;5.45;1.95;;;;;;;20.33;48.19;102275.50;16116395;19;130108;-60
2023/10/06 13:39:40;;;;;;;6.97;2.42;;;;;;;20.33;47.95;102276.38;16118207;19;130016;-60
2023/10/06 13:45:05;;;;;;;5.72;2.13;;;;;;;20.33;47.76;102259.72;16116124;19;129771;-59
2023/10/06 13:50:28;;;;;;;4.80;1.98;;;;;;;20.34;47.40;102277.22;16115657;19;130225;-59
2023/10/06 13:55:50;;;;;;;4.55;1.60;;;;;;;20.34;47.78;102268.88;16118101;19;130193;-59
2023/10/06 14:01:12;;;;;;;7.50;2.40;;;;;;;20.34;47.66;102260.53;16116485;19;130954;-59
2023/10/06 14:06:34;;;;;;;7.53;2.25;;;;;;;20.33;47.34;102270.81;16116014;19;129715;-59
2023/10/06 14:11:56;;;;;;;6.53;2.63;;;;;;;20.33;47.08;102269.94;16118138;19;130780;-59
2023/10/06 14:17:20;;;;;;;7.72;2.63;;;;;;;20.33;46.85;102256.06;16117026;19;129412;-59
2023/10/06 14:22:49;;;;;;;10.85;2.95;;;;;;;20.32;46.48;102252.44;16117436;19;129753;-60
2023/10/06 14:28:11;;;;;;;6.47;2.50;;;;;;;20.32;46.93;102260.78;16114962;19;130235;-59
2023/10/06 14:33:39;;;;;;;8.20;2.90;;;;;;;20.32;46.50;102262.69;16112578;19;130115;-59
2023/10/06 14:50:24;;;;;;;9.98;3.03;;;;;;;20.27;46.84;102250.34;16114333;19;129853;-60
2023/10/06 14:55:47;;;;;;;8.30;2.50;;;;;;;20.27;47.16;102244.78;16112530;19;130206;-59
2023/10/06 15:01:12;;;;;;;11.30;3.78;;;;;;;20.27;47.16;102239.22;16115705;19;129305;-60
2023/10/06 15:06:35;;;;;;;7.15;2.65;;;;;;;20.28;47.16;102242.84;16114153;19;129670;-59
2023/10/06 15:11:58;;;;;;;8.35;2.60;;;;;;;20.29;47.66;102236.22;16112293;19;129819;-62
2023/10/06 15:17:20;;;;;;;9.32;2.63;;;;;;;20.30;47.22;102240.69;16110199;19;129449;-60
2023/10/06 15:22:42;;;;;;;6.18;2.50;;;;;;;20.27;47.91;102232.81;16114609;19;130006;-60
2023/10/06 15:28:05;;;;;;;7.70;2.40;;;;;;;20.26;47.98;102233.88;16109491;19;130137;-60
2023/10/06 15:33:34;;;;;;;7.38;2.42;;;;;;;20.24;48.32;102225.78;16108688;19;129662;-60
2023/10/06 15:39:22;;;;;;;9.18;2.67;;;;;;;20.23;48.28;102229.63;16106918;19;129736;-60
2023/10/06 15:44:44;;;;;;;9.27;2.50;;;;;;;20.21;48.09;102229.00;16101977;19;130794;-60
2023/10/06 15:50:07;;;;;;;10.38;3.25;;;;;;;20.20;48.32;102232.84;16107059;19;129465;-60
2023/10/06 15:55:43;;;;;;;10.05;4.45;;;;;;;20.20;47.82;102226.47;16103771;19;130621;-60
2023/10/06 16:01:11;;;;;;;31.13;13.07;;;;;;;20.20;47.77;102221.75;16104717;19;129396;-60
2023/10/06 16:06:37;;;;;;;47.95;18.00;;;;;;;20.20;47.89;102226.47;16118678;19;129731;-59
2023/10/06 16:11:59;;;;;;;45.35;17.65;;;;;;;20.19;48.18;102220.03;16120824;19;130694;-60
2023/10/06 16:17:21;;;;;;;45.20;16.70;;;;;;;20.20;47.89;102216.19;16117468;19;129875;-59
2023/10/06 16:22:44;;;;;;;44.13;14.88;;;;;;;20.21;48.25;102223.44;16119971;19;130145;-61
2023/10/06 16:28:08;;;;;;;29.40;12.27;;;;;;;20.22;48.20;102219.59;16119763;19;131232;-61
2023/10/06 16:33:31;;;;;;;34.97;11.98;;;;;;;20.24;48.32;102219.38;16123589;19;130848;-59
2023/10/06 16:38:53;;;;;;;25.52;10.48;;;;;;;20.25;48.08;102208.03;16121986;19;131048;-57
2023/10/06 16:44:15;;;;;;;28.45;10.48;;;;;;;20.26;48.12;102204.19;16121471;19;131939;-58
2023/10/06 16:49:37;;;;;;;26.83;9.82;;;;;;;20.26;47.99;102206.94;16112550;19;131243;-61
2023/10/06 16:55:00;;;;;;;26.35;9.98;;;;;;;20.28;48.29;102201.16;16121789;19;131083;-60
2023/10/06 17:00:22;;;;;;;25.25;9.20;;;;;;;20.26;48.59;102201.41;16120536;19;130716;-58
2023/10/06 17:05:44;;;;;;;27.88;8.55;;;;;;;20.24;48.20;102195.22;16116824;19;130845;-54
2023/10/06 17:11:15;;;;;;;19.92;8.10;;;;;;;20.24;48.68;102211.88;16118498;19;129693;-59
2023/10/06 17:16:37;;;;;;;17.38;6.40;;;;;;;20.23;48.63;102212.13;16116420;19;129719;-57
2023/10/06 17:22:00;;;;;;;23.98;7.35;;;;;;;20.23;48.63;102218.50;16120650;19;130343;-59
2023/10/06 17:27:22;;;;;;;22.50;6.32;;;;;;;20.24;48.57;102223.00;16118929;19;129691;-61
2023/10/06 17:32:48;;;;;;;18.98;6.68;;;;;;;20.27;48.68;102221.69;16114375;19;130119;-61
2023/10/06 17:38:10;;;;;;;18.77;6.45;;;;;;;20.23;48.96;102226.84;16118311;19;129669;-61
2023/10/06 17:43:32;;;;;;;16.60;5.78;;;;;;;20.22;48.79;102221.53;16119742;19;131083;-61
2023/10/06 17:48:54;;;;;;;14.98;6.32;;;;;;;20.19;48.78;102225.59;16123590;19;132739;-58
2023/10/06 17:54:16;;;;;;;10.27;4.93;;;;;;;20.18;49.17;102234.16;16119621;19;130425;-61
2023/10/06 17:59:38;;;;;;;14.25;5.18;;;;;;;20.17;49.24;102251.91;16118371;19;129668;-60
2023/10/06 18:05:04;;;;;;;12.10;5.18;;;;;;;20.14;49.17;102231.00;16116055;19;129416;-60
2023/10/06 18:10:27;;;;;;;12.45;4.63;;;;;;;20.12;49.33;102224.81;16114326;19;130099;-61
2023/10/06 18:15:48;;;;;;;10.77;5.10;;;;;;;20.10;49.25;102218.63;16115155;19;130598;-68
2023/10/06 18:21:11;;;;;;;12.13;4.90;;;;;;;20.08;49.18;102224.41;16115036;19;130232;-62
2023/10/06 18:26:34;;;;;;;11.65;4.70;;;;;;;20.08;49.29;102220.75;16108074;19;130820;-64
2023/10/06 18:31:58;;;;;;;11.88;4.60;;;;;;;20.06;49.41;102214.59;16114166;19;130284;-67
2023/10/06 18:37:21;;;;;;;10.70;4.70;;;;;;;20.04;49.35;102214.81;16113639;19;129540;-67
2023/10/06 18:42:43;;;;;;;7.88;3.78;;;;;;;20.03;49.59;102220.59;16109436;19;129411;-69
2023/10/06 18:48:05;;;;;;;11.63;3.83;;;;;;;20.02;49.59;102230.00;16113743;19;130718;-64
2023/10/06 18:53:29;;;;;;;11.52;4.43;;;;;;;20.02;49.63;102230.00;16109512;19;129526;-70
2023/10/06 18:58:51;;;;;;;8.65;4.10;;;;;;;19.99;49.91;102237.72;16114133;19;129520;-62
2023/10/06 19:04:13;;;;;;;8.88;3.90;;;;;;;19.99;49.76;102234.06;16114437;19;131096;-63
2023/10/06 19:09:37;;;;;;;9.65;3.90;;;;;;;19.98;49.50;102230.41;16110989;19;130284;-62
2023/10/06 19:14:59;;;;;;;6.72;3.40;;;;;;;19.96;50.14;102227.00;16109996;19;130376;-67
2023/10/06 19:20:21;;;;;;;6.75;3.15;;;;;;;19.96;49.91;102224.22;16156945;19;129469;-60
2023/10/06 19:25:43;;;;;;;8.57;3.40;;;;;;;19.95;50.12;102222.53;16127357;19;129371;-62
2023/10/06 19:31:06;;;;;;;5.68;2.97;;;;;;;19.93;49.73;102227.47;16114838;19;131801;-61
2023/10/06 19:36:33;;;;;;;6.32;3.03;;;;;;;19.93;49.82;102227.47;16138081;19;129405;-61
2023/10/06 19:41:56;;;;;;;6.65;3.25;;;;;;;19.91;50.17;102224.06;16180687;19;128731;-60
2023/10/06 19:47:19;;;;;;;5.00;2.60;;;;;;;19.91;50.23;102225.97;16187761;19;130166;-61
2023/10/06 19:52:41;;;;;;;6.25;2.85;;;;;;;19.90;49.88;102232.59;16163254;19;129548;-61
2023/10/06 19:58:04;;;;;;;5.10;2.83;;;;;;;19.89;50.29;102223.44;16198157;19;129804;-59
2023/10/06 20:03:26;;;;;;;7.05;2.97;;;;;;;19.87;50.13;102225.56;16200986;19;128492;-59
2023/10/06 20:08:48;;;;;;;6.07;2.50;;;;;;;19.87;49.90;102220.03;16198439;19;129062;-60
2023/10/06 20:14:10;;;;;;;4.78;2.58;;;;;;;19.86;50.26;102223.88;16202857;19;129248;-59
2023/10/06 20:19:33;;;;;;;6.05;2.58;;;;;;;19.85;50.21;102224.94;16177397;19;130140;-58
2023/10/06 20:24:55;;;;;;;7.50;2.70;;;;;;;19.81;50.07;102229.25;16186737;19;130035;-59
2023/10/06 20:30:21;;;;;;;6.25;2.28;;;;;;;19.80;49.99;102230.34;16186148;19;129807;-54
2023/10/06 20:35:43;;;;;;;6.38;2.47;;;;;;;19.82;50.01;102220.69;16185046;19;131304;-59
2023/10/06 20:41:05;;;;;;;7.43;2.85;;;;;;;19.85;50.39;102224.94;16197870;19;130704;-59
2023/10/06 20:46:28;;;;;;;5.03;2.35;;;;;;;19.89;50.23;102247.56;16167723;19;129495;-62
2023/10/06 20:51:51;;;;;;;5.55;2.33;;;;;;;19.90;49.87;102236.25;16163481;19;129596;-63
2023/10/06 20:57:13;;;;;;;11.07;2.10;;;;;;;19.93;50.26;102249.69;16140747;19;129751;-61
2023/10/06 21:02:36;;;;;;;9.18;2.72;;;;;;;19.93;50.18;102248.81;16132182;19;130981;-58
2023/10/06 21:07:59;;;;;;;8.50;2.35;;;;;;;19.94;49.96;102256.91;16137072;19;131444;-64
2023/10/06 21:13:21;;;;;;;6.78;2.28;;;;;;;19.96;50.26;102253.94;16149775;19;130579;-60
2023/10/06 21:18:43;;;;;;;9.30;2.90;;;;;;;19.97;50.23;102262.03;16159668;19;129760;-59
2023/10/06 21:24:05;;;;;;;5.70;2.33;;;;;;;19.98;49.97;102246.25;16116646;19;130809;-60
2023/10/06 21:29:28;;;;;;;11.77;2.13;;;;;;;19.96;50.12;102242.84;16122242;19;130729;-60
2023/10/06 21:34:50;;;;;;;4.63;2.38;;;;;;;19.94;50.22;102229.16;16129496;19;129970;-61
2023/10/06 21:40:12;;;;;;;4.60;1.90;;;;;;;19.95;50.16;102232.78;16131840;19;130095;-58
2023/10/06 21:45:42;;;;;;;6.30;2.47;;;;;;;19.96;49.88;102240.88;16120785;19;134956;-55
2023/10/06 21:51:06;;;;;;;8.93;2.15;;;;;;;19.96;49.90;102240.88;16115236;19;129602;-58
2023/10/06 21:56:28;;;;;;;11.02;2.28;;;;;;;19.99;49.77;102248.81;16115662;19;129947;-56
2023/10/06 22:01:50;;;;;;;5.95;1.85;;;;;;;19.99;49.94;102259.94;16118352;19;130814;-62
2023/10/06 22:07:13;;;;;;;8.98;2.63;;;;;;;20.01;49.54;102269.97;16115608;19;130921;-58
2023/10/06 22:12:37;;;;;;;8.82;2.17;;;;;;;20.01;49.55;102262.47;16115329;19;130572;-60
2023/10/06 22:17:59;;;;;;;6.30;2.33;;;;;;;20.03;49.90;102281.72;16118391;19;130264;-59
2023/10/06 22:23:21;;;;;;;7.80;1.80;;;;;;;20.03;49.63;102260.31;16117243;19;130029;-60
2023/10/06 22:28:43;;;;;;;6.05;2.15;;;;;;;20.03;49.57;102259.50;16111530;19;130993;-55
2023/10/06 22:34:07;;;;;;;11.27;2.35;;;;;;;20.04;49.62;102258.41;16111365;19;129762;-56
2023/10/06 22:39:30;;;;;;;5.97;1.98;;;;;;;20.03;49.76;102267.81;16106219;19;134150;-59
2023/10/06 22:44:52;;;;;;;5.55;1.83;;;;;;;20.02;49.22;102258.63;16109480;19;133077;-57
2023/10/06 22:50:18;;;;;;;7.55;1.65;;;;;;;20.02;49.43;102247.50;16110260;19;130432;-62
2023/10/06 22:55:41;;;;;;;8.88;1.67;;;;;;;20.01;49.64;102248.59;16113507;19;129608;-61
2023/10/06 23:01:04;;;;;;;4.35;1.88;;;;;;;20.00;49.49;102249.66;16113599;19;131623;-58
2023/10/06 23:06:29;;;;;;;4.80;1.70;;;;;;;20.00;48.94;102246.88;16110187;19;130424;-60
2023/10/06 23:11:51;;;;;;;6.45;1.65;;;;;;;20.01;48.94;102243.03;16106991;19;130842;-60
2023/10/06 23:17:13;;;;;;;4.53;1.85;;;;;;;19.99;48.48;102248.81;16121124;19;130390;-60
2023/10/06 23:22:37;;;;;;;6.78;1.83;;;;;;;19.98;48.96;102244.31;16124415;19;129537;-60
2023/10/06 23:27:59;;;;;;;11.18;1.83;;;;;;;19.97;48.80;102250.09;16125308;19;130140;-59
2023/10/06 23:33:21;;;;;;;6.78;1.73;;;;;;;19.96;48.91;102243.66;16123236;19;130361;-60
2023/10/06 23:38:44;;;;;;;5.97;1.52;;;;;;;19.95;48.82;102247.53;16123456;19;130823;-60
2023/10/06 23:44:07;;;;;;;7.18;1.75;;;;;;;19.94;48.56;102233.88;16126428;19;129665;-58
2023/10/06 23:49:29;;;;;;;4.55;1.80;;;;;;;19.92;49.03;102242.44;16123503;19;134315;-59
2023/10/06 23:54:53;;;;;;;3.17;1.73;;;;;;;19.90;48.58;102210.38;16128227;19;130653;-59
